createdAt,value
2022-08-17T00:00:44.164Z,79.61
2022-08-17T00:01:24.136Z,79.85
2022-08-17T00:02:26.290Z,80.26
2022-08-17T00:03:23.125Z,80.45
2022-08-17T00:04:22.282Z,81.45
2022-08-17T00:05:22.435Z,80.65
2022-08-17T00:06:22.581Z,80.85
2022-08-17T00:07:22.955Z,80.85
2022-08-17T00:08:22.866Z,81.25
2022-08-17T00:09:23.060Z,80.85
2022-08-17T00:10:23.210Z,80.55
2022-08-17T00:11:23.387Z,79.96
2022-08-17T00:12:42.317Z,79.35
2022-08-17T00:13:24.652Z,79.05
2022-08-17T00:14:23.819Z,79.32
2022-08-17T00:15:23.968Z,78.61
2022-08-17T00:16:57.094Z,77.51
2022-08-17T00:17:25.210Z,77.22
2022-08-17T00:19:05.690Z,76.98
2022-08-17T00:19:25.487Z,76.58
2022-08-17T00:20:30.492Z,76.88
2022-08-17T00:21:25.733Z,76.38
2022-08-17T00:22:34.903Z,76.78
2022-08-17T00:23:25.912Z,75.89
2022-08-17T00:24:25.048Z,76.18
2022-08-17T00:25:25.185Z,76.68
2022-08-17T00:26:38.782Z,76.95
2022-08-17T00:27:26.477Z,76.25
2022-08-17T00:28:25.615Z,76.04
2022-08-17T00:29:25.784Z,77.04
2022-08-17T00:30:25.934Z,77.48
2022-08-17T00:31:26.077Z,77.38
2022-08-17T00:33:12.019Z,77.48
2022-08-17T00:33:27.625Z,78.08
2022-08-17T00:34:27.964Z,77.72
2022-08-17T00:35:26.650Z,78.02
2022-08-17T00:36:26.796Z,78.81
2022-08-17T00:37:26.945Z,78.92
2022-08-17T00:38:27.094Z,79.16
2022-08-17T00:39:27.282Z,80.05
2022-08-17T00:40:27.441Z,79.46
2022-08-17T00:41:28.562Z,79.96
2022-08-17T00:42:31.115Z,80.85
2022-08-17T00:43:27.831Z,80.85
2022-08-17T00:44:31.202Z,80.95
2022-08-17T00:45:28.101Z,79.69
2022-08-17T00:46:28.235Z,79.29
2022-08-17T00:47:28.396Z,80.29
2022-08-17T00:48:29.857Z,80.39
2022-08-17T00:49:28.685Z,81.19
2022-08-17T00:50:28.848Z,81.39
2022-08-17T00:51:29.012Z,81.69
2022-08-17T00:52:29.164Z,81.59
2022-08-17T00:53:29.314Z,81.79
2022-08-17T00:54:29.459Z,81.99
2022-08-17T00:55:29.643Z,81.69
2022-08-17T00:56:29.786Z,82.19
2022-08-17T00:57:29.938Z,81.89
2022-08-17T00:58:36.672Z,82.49
2022-08-17T00:59:31.189Z,82.79
2022-08-17T01:00:30.368Z,82.39
2022-08-17T01:01:30.551Z,83.13
2022-08-17T01:02:30.713Z,83.43
2022-08-17T01:03:30.914Z,83.43
2022-08-17T01:04:31.059Z,83.73
2022-08-17T01:05:31.236Z,83.63
2022-08-17T01:06:31.403Z,83.53
2022-08-17T01:07:31.561Z,83.43
2022-08-17T01:08:31.712Z,83.03
2022-08-17T01:09:31.858Z,83.17
2022-08-17T01:10:58.657Z,83.87
2022-08-17T01:11:33.125Z,83.67
2022-08-17T01:12:32.281Z,83.87
2022-08-17T01:13:36.753Z,84.37
2022-08-17T01:14:33.565Z,83.67
2022-08-17T01:15:32.749Z,83.87
2022-08-17T01:16:32.907Z,84.27
2022-08-17T01:17:33.062Z,84.47
2022-08-17T01:18:33.211Z,84.07
2022-08-17T01:19:33.352Z,83.57
2022-08-17T01:20:47.837Z,83.77
2022-08-17T01:21:34.642Z,84.47
2022-08-17T01:22:33.793Z,84.37
2022-08-17T01:23:33.941Z,83.77
2022-08-17T01:24:34.098Z,83.67
2022-08-17T01:25:34.260Z,83.87
2022-08-17T01:26:34.410Z,83.47
2022-08-17T01:27:34.556Z,83.47
2022-08-17T01:28:52.618Z,83.87
2022-08-17T01:29:35.855Z,83.47
2022-08-17T01:30:58.000Z,83.47
2022-08-17T01:31:36.134Z,84.77
2022-08-17T01:32:35.271Z,84.81
2022-08-17T01:33:35.420Z,84.81
2022-08-17T01:34:42.538Z,85.91
2022-08-17T01:35:36.688Z,86.01
2022-08-17T01:36:35.841Z,86.01
2022-08-17T01:37:35.991Z,85.51
2022-08-17T01:38:36.151Z,85.01
2022-08-17T01:39:36.341Z,84.71
2022-08-17T01:40:36.493Z,85.31
2022-08-17T01:41:36.646Z,85.41
2022-08-17T01:42:36.803Z,85.41
2022-08-17T01:43:36.952Z,85.25
2022-08-17T01:44:37.099Z,85.75
2022-08-17T01:45:37.220Z,86.46
2022-08-17T01:46:37.385Z,86.46
2022-08-17T01:47:37.538Z,86.96
2022-08-17T01:48:37.701Z,87.16
2022-08-17T01:49:37.860Z,87.05
2022-08-17T01:50:38.011Z,86.96
2022-08-17T01:51:38.194Z,87.26
2022-08-17T01:52:38.345Z,86.96
2022-08-17T01:53:38.494Z,86.66
2022-08-17T01:54:38.661Z,86.35
2022-08-17T01:55:38.796Z,86.35
2022-08-17T01:56:38.972Z,86.05
2022-08-17T01:57:39.131Z,86.35
2022-08-17T01:58:39.271Z,86.25
2022-08-17T01:59:39.441Z,86.46
2022-08-17T02:00:47.828Z,86.66
2022-08-17T02:01:40.728Z,86.16
2022-08-17T02:02:39.881Z,86.25
2022-08-17T02:03:40.039Z,86.46
2022-08-17T02:04:40.185Z,86.35
2022-08-17T02:05:40.339Z,85.85
2022-08-17T02:06:52.675Z,86.05
2022-08-17T02:08:00.015Z,86.25
2022-08-17T02:09:02.271Z,86.46
2022-08-17T02:09:42.102Z,86.76
2022-08-17T02:10:46.655Z,86.46
2022-08-17T02:11:42.141Z,86.35
2022-08-17T02:12:41.321Z,86.76
2022-08-17T02:13:41.486Z,86.76
2022-08-17T02:14:41.662Z,86.96
2022-08-17T02:15:41.818Z,87.26
2022-08-17T02:16:41.979Z,87.26
2022-08-17T02:17:42.178Z,87.26
2022-08-17T02:18:42.338Z,87.36
2022-08-17T02:19:42.489Z,87.46
2022-08-17T02:20:42.993Z,87.36
2022-08-17T02:21:42.809Z,87.36
2022-08-17T02:22:43.041Z,87.46
2022-08-17T02:23:43.079Z,87.16
2022-08-17T02:25:00.953Z,86.90
2022-08-17T02:25:44.333Z,87.60
2022-08-17T02:26:43.505Z,87.10
2022-08-17T02:27:43.688Z,87.20
2022-08-17T02:28:43.856Z,87.50
2022-08-17T02:29:44.045Z,87.30
2022-08-17T02:31:01.127Z,87.30
2022-08-17T02:31:45.349Z,87.40
2022-08-17T02:32:44.520Z,87.90
2022-08-17T02:33:44.670Z,88.10
2022-08-17T02:34:45.788Z,88.40
2022-08-17T02:35:44.932Z,88.46
2022-08-17T02:36:45.090Z,88.16
2022-08-17T02:37:45.270Z,88.36
2022-08-17T02:38:46.375Z,88.66
2022-08-17T02:39:45.588Z,87.76
2022-08-17T02:40:45.736Z,86.76
2022-08-17T02:41:45.838Z,86.35
2022-08-17T02:42:46.077Z,85.75
2022-08-17T02:43:46.109Z,85.96
2022-08-17T02:44:46.284Z,86.46
2022-08-17T02:45:46.452Z,86.35
2022-08-17T02:46:46.613Z,87.26
2022-08-17T02:47:46.777Z,87.36
2022-08-17T02:48:46.935Z,87.55
2022-08-17T02:49:54.331Z,87.55
2022-08-17T02:50:48.188Z,87.16
2022-08-17T02:51:47.365Z,87.55
2022-08-17T02:52:47.536Z,87.26
2022-08-17T02:53:48.648Z,87.16
2022-08-17T02:54:47.804Z,87.05
2022-08-17T02:55:48.000Z,86.96
2022-08-17T02:56:48.158Z,87.05
2022-08-17T02:57:48.348Z,87.26
2022-08-17T02:58:48.518Z,87.46
2022-08-17T02:59:49.224Z,87.55
2022-08-17T03:00:48.867Z,87.66
2022-08-17T03:01:49.137Z,87.86
2022-08-17T03:02:49.425Z,87.76
2022-08-17T03:03:49.338Z,87.96
2022-08-17T03:04:49.496Z,88.26
2022-08-17T03:05:49.635Z,87.96
2022-08-17T03:06:49.796Z,88.06
2022-08-17T03:07:49.966Z,88.16
2022-08-17T03:08:50.138Z,88.26
2022-08-17T03:09:50.306Z,87.66
2022-08-17T03:10:50.636Z,87.76
2022-08-17T03:11:50.671Z,87.55
2022-08-17T03:12:51.016Z,87.46
2022-08-17T03:13:51.038Z,87.46
2022-08-17T03:14:51.189Z,87.40
2022-08-17T03:15:51.341Z,87.46
2022-08-17T03:16:51.496Z,87.66
2022-08-17T03:17:51.669Z,87.46
2022-08-17T03:18:51.828Z,87.36
2022-08-17T03:19:51.978Z,87.30
2022-08-17T03:20:52.167Z,87.40
2022-08-17T03:21:55.039Z,87.50
2022-08-17T03:22:53.205Z,87.50
2022-08-17T03:23:54.621Z,87.50
2022-08-17T03:24:52.915Z,87.10
2022-08-17T03:25:53.762Z,87.40
2022-08-17T03:26:53.292Z,87.90
2022-08-17T03:27:53.495Z,88.75
2022-08-17T03:28:53.656Z,89.04
2022-08-17T03:29:53.827Z,89.34
2022-08-17T03:30:53.986Z,89.45
2022-08-17T03:31:54.158Z,89.34
2022-08-17T03:32:54.328Z,88.95
2022-08-17T03:33:54.503Z,89.04
2022-08-17T03:34:54.689Z,89.04
2022-08-17T03:35:54.854Z,89.14
2022-08-17T03:36:55.020Z,89.25
2022-08-17T03:38:00.321Z,89.34
2022-08-17T03:38:56.359Z,89.45
2022-08-17T03:39:55.543Z,89.45
2022-08-17T03:40:59.497Z,89.95
2022-08-17T03:41:55.853Z,90.05
2022-08-17T03:42:56.043Z,90.05
2022-08-17T03:43:56.289Z,89.85
2022-08-17T03:44:57.744Z,89.54
2022-08-17T03:45:56.533Z,89.45
2022-08-17T03:46:56.693Z,88.95
2022-08-17T03:47:56.884Z,89.14
2022-08-17T03:48:57.044Z,89.14
2022-08-17T03:50:04.212Z,89.04
2022-08-17T03:50:57.343Z,89.04
2022-08-17T03:51:57.482Z,89.25
2022-08-17T03:52:57.766Z,89.34
2022-08-17T03:53:57.780Z,89.45
2022-08-17T03:54:57.939Z,89.65
2022-08-17T03:55:58.095Z,89.85
2022-08-17T03:56:58.245Z,89.75
2022-08-17T03:57:58.407Z,89.95
2022-08-17T03:58:58.597Z,89.75
2022-08-17T03:59:58.741Z,89.75
2022-08-17T04:00:58.913Z,89.59
2022-08-17T04:01:59.052Z,89.39
2022-08-17T04:02:59.218Z,89.34
2022-08-17T04:03:59.368Z,89.45
2022-08-17T04:04:59.527Z,88.95
2022-08-17T04:05:59.682Z,88.75
2022-08-17T04:06:59.836Z,88.44
2022-08-17T04:07:59.997Z,88.04
2022-08-17T04:09:00.151Z,87.94
2022-08-17T04:10:00.336Z,87.84
2022-08-17T04:11:00.471Z,88.04
2022-08-17T04:12:02.374Z,88.64
2022-08-17T04:13:00.745Z,88.95
2022-08-17T04:14:00.896Z,88.90
2022-08-17T04:15:01.059Z,88.90
2022-08-17T04:16:01.201Z,88.90
2022-08-17T04:17:01.362Z,88.70
2022-08-17T04:18:01.522Z,88.10
2022-08-17T04:19:01.675Z,88.30
2022-08-17T04:20:01.855Z,88.50
2022-08-17T04:21:01.997Z,89.00
2022-08-17T04:22:02.141Z,89.20
2022-08-17T04:23:02.305Z,89.11
2022-08-17T04:24:02.456Z,88.70
2022-08-17T04:25:02.612Z,88.60
2022-08-17T04:26:02.770Z,88.70
2022-08-17T04:27:02.934Z,88.30
2022-08-17T04:28:03.116Z,88.36
2022-08-17T04:29:03.284Z,87.96
2022-08-17T04:30:03.462Z,87.76
2022-08-17T04:31:03.632Z,87.55
2022-08-17T04:32:03.806Z,87.46
2022-08-17T04:33:07.114Z,87.16
2022-08-17T04:34:04.129Z,86.96
2022-08-17T04:35:04.277Z,86.82
2022-08-17T04:36:04.417Z,86.41
2022-08-17T04:37:04.581Z,86.71
2022-08-17T04:38:04.757Z,86.71
2022-08-17T04:39:04.911Z,86.52
2022-08-17T04:40:05.118Z,86.32
2022-08-17T04:41:05.200Z,86.21
2022-08-17T04:42:05.356Z,85.97
2022-08-17T04:43:05.556Z,85.77
2022-08-17T04:44:05.715Z,85.17
2022-08-17T04:45:05.878Z,84.87
2022-08-17T04:46:06.895Z,84.73
2022-08-17T04:47:06.172Z,84.33
2022-08-17T04:48:06.323Z,84.13
2022-08-17T04:49:06.467Z,84.53
2022-08-17T04:50:06.633Z,84.23
2022-08-17T04:51:06.786Z,83.43
2022-08-17T04:52:06.941Z,83.69
2022-08-17T04:53:07.167Z,82.79
2022-08-17T04:54:07.314Z,82.79
2022-08-17T04:55:07.473Z,81.99
2022-08-17T04:56:07.652Z,82.05
2022-08-17T04:57:07.804Z,81.56
2022-08-17T04:58:07.969Z,81.35
2022-08-17T04:59:08.136Z,80.71
2022-08-17T05:00:08.285Z,80.41
2022-08-17T05:01:08.470Z,80.32
2022-08-17T05:02:08.594Z,80.62
2022-08-17T05:03:08.778Z,79.22
2022-08-17T05:04:32.783Z,79.91
2022-08-17T05:05:10.037Z,79.78
2022-08-17T05:06:09.199Z,80.38
2022-08-17T05:07:09.344Z,80.18
2022-08-17T05:08:09.498Z,79.88
2022-08-17T05:09:09.660Z,79.08
2022-08-17T05:10:09.804Z,78.38
2022-08-17T05:11:09.984Z,78.84
2022-08-17T05:12:10.125Z,77.74
2022-08-17T05:13:10.294Z,77.74
2022-08-17T05:14:10.421Z,77.04
2022-08-17T05:15:10.575Z,77.14
2022-08-17T05:16:10.726Z,76.45
2022-08-17T05:17:11.321Z,76.54
2022-08-17T05:18:11.015Z,76.41
2022-08-17T05:19:11.162Z,76.11
2022-08-17T05:20:11.321Z,75.91
2022-08-17T05:21:11.472Z,75.31
2022-08-17T05:22:11.614Z,75.11
2022-08-17T05:23:11.777Z,75.01
2022-08-17T05:24:38.580Z,74.91
2022-08-17T05:25:13.008Z,74.88
2022-08-17T05:26:22.562Z,73.78
2022-08-17T05:27:17.854Z,73.58
2022-08-17T05:28:13.310Z,74.18
2022-08-17T05:29:12.452Z,74.48
2022-08-17T05:30:12.589Z,74.44
2022-08-17T05:31:12.754Z,74.74
2022-08-17T05:32:38.059Z,74.54
2022-08-17T05:33:13.997Z,74.64
2022-08-17T05:34:13.154Z,74.04
2022-08-17T05:35:13.310Z,73.14
2022-08-17T05:36:43.723Z,71.75
2022-08-17T05:37:14.556Z,70.62
2022-08-17T05:38:13.718Z,70.03
2022-08-17T05:39:16.151Z,71.62
2022-08-17T05:40:14.025Z,70.98
2022-08-17T05:41:14.038Z,70.19
2022-08-17T05:42:14.174Z,69.99
2022-08-17T05:43:14.317Z,69.85
2022-08-17T05:44:14.472Z,69.76
2022-08-17T05:45:14.595Z,69.46
2022-08-17T05:46:14.737Z,69.36
2022-08-17T05:47:14.896Z,68.53
2022-08-17T05:48:15.053Z,68.23
2022-08-17T05:49:15.215Z,67.54
2022-08-17T05:50:18.167Z,66.74
2022-08-17T05:51:16.434Z,66.81
2022-08-17T05:52:19.912Z,67.90
2022-08-17T05:53:15.713Z,68.20
2022-08-17T05:54:15.853Z,67.80
2022-08-17T05:55:15.976Z,66.51
2022-08-17T05:56:29.867Z,66.88
2022-08-17T05:57:17.173Z,65.78
2022-08-17T05:58:16.332Z,66.28
2022-08-17T05:59:16.502Z,66.08
2022-08-17T06:00:16.648Z,66.28
2022-08-17T06:01:16.823Z,65.95
2022-08-17T06:02:16.823Z,64.95
2022-08-17T06:03:16.958Z,64.76
2022-08-17T06:04:17.102Z,64.95
2022-08-17T06:05:17.237Z,63.96
2022-08-17T06:06:17.369Z,64.73
2022-08-17T06:07:17.490Z,65.12
2022-08-17T06:08:17.641Z,64.43
2022-08-17T06:09:22.844Z,63.73
2022-08-17T06:10:18.844Z,63.80
2022-08-17T06:11:19.864Z,63.21
2022-08-17T06:12:19.756Z,62.71
2022-08-17T06:13:18.244Z,62.38
2022-08-17T06:14:18.408Z,63.37
2022-08-17T06:15:18.555Z,62.55
2022-08-17T06:16:33.050Z,63.74
2022-08-17T06:17:19.766Z,62.95
2022-08-17T06:18:19.296Z,62.75
2022-08-17T06:19:19.017Z,62.15
2022-08-17T06:20:19.135Z,61.07
2022-08-17T06:21:19.278Z,61.16
2022-08-17T06:22:20.353Z,61.46
2022-08-17T06:23:19.471Z,61.13
2022-08-17T06:24:19.622Z,62.02
2022-08-17T06:25:19.822Z,61.93
2022-08-17T06:26:19.855Z,62.10
2022-08-17T06:27:19.987Z,61.30
2022-08-17T06:28:20.113Z,61.50
2022-08-17T06:29:20.247Z,61.40
2022-08-17T06:30:20.381Z,61.99
2022-08-17T06:31:20.492Z,61.80
2022-08-17T06:32:20.610Z,60.38
2022-08-17T06:33:20.766Z,60.38
2022-08-17T06:34:20.933Z,59.86
2022-08-17T06:35:21.063Z,60.55
2022-08-17T06:36:21.197Z,59.73
2022-08-17T06:37:21.333Z,58.45
2022-08-17T06:38:37.194Z,58.22
2022-08-17T06:39:22.583Z,58.12
2022-08-17T06:40:21.588Z,58.61
2022-08-17T06:41:21.703Z,58.00
2022-08-17T06:42:54.996Z,57.89
2022-08-17T06:43:22.902Z,57.20
2022-08-17T06:44:43.615Z,57.20
2022-08-17T06:45:23.100Z,56.98
2022-08-17T06:46:22.221Z,55.99
2022-08-17T06:47:28.495Z,56.16
2022-08-17T06:48:23.385Z,55.74
2022-08-17T06:49:22.497Z,55.02
2022-08-17T06:50:22.615Z,54.63
2022-08-17T06:51:22.725Z,53.91
2022-08-17T06:52:45.763Z,53.30
2022-08-17T06:53:23.912Z,53.19
2022-08-17T06:54:23.016Z,52.70
2022-08-17T06:55:23.139Z,52.87
2022-08-17T06:56:23.250Z,51.89
2022-08-17T06:57:23.361Z,51.37
2022-08-17T06:58:23.463Z,51.93
2022-08-17T06:59:24.515Z,51.52
2022-08-17T07:00:23.668Z,51.42
2022-08-17T07:01:23.716Z,50.51
2022-08-17T07:02:29.043Z,49.31
2022-08-17T07:03:24.856Z,48.62
2022-08-17T07:04:23.980Z,49.11
2022-08-17T07:05:24.095Z,48.99
2022-08-17T07:06:24.194Z,48.23
2022-08-17T07:07:24.293Z,48.52
2022-08-17T07:08:29.147Z,46.44
2022-08-17T07:09:25.448Z,46.44
2022-08-17T07:10:24.599Z,46.81
2022-08-17T07:11:24.600Z,44.53
2022-08-17T07:12:24.743Z,45.17
2022-08-17T07:13:24.837Z,44.76
2022-08-17T07:14:24.961Z,44.17
2022-08-17T07:15:25.054Z,44.76
2022-08-17T07:16:25.149Z,45.86
2022-08-17T07:17:47.029Z,44.48
2022-08-17T07:18:26.276Z,45.37
2022-08-17T07:19:25.402Z,43.98
2022-08-17T07:20:25.475Z,43.77
2022-08-17T07:21:26.689Z,44.19
2022-08-17T07:22:25.613Z,44.17
2022-08-17T07:23:25.699Z,43.85
2022-08-17T07:24:30.214Z,43.76
2022-08-17T07:25:25.870Z,43.91
2022-08-17T07:26:25.955Z,42.22
2022-08-17T07:27:26.061Z,42.81
2022-08-17T07:28:26.138Z,42.60
2022-08-17T07:29:26.216Z,41.62
2022-08-17T07:30:26.297Z,43.18
2022-08-17T07:31:26.378Z,42.46
2022-08-17T07:32:26.462Z,40.78
2022-08-17T07:33:26.539Z,40.62
2022-08-17T07:34:26.622Z,41.02
2022-08-17T07:35:31.252Z,42.13
2022-08-17T07:36:30.058Z,42.13
2022-08-17T07:37:26.807Z,42.61
2022-08-17T07:38:27.178Z,41.41
2022-08-17T07:39:26.982Z,40.92
2022-08-17T07:40:27.017Z,41.38
2022-08-17T07:41:27.056Z,42.55
2022-08-17T07:42:28.078Z,41.89
2022-08-17T07:43:29.391Z,41.77
2022-08-17T07:44:27.189Z,42.16
2022-08-17T07:45:27.252Z,40.97
2022-08-17T07:46:27.319Z,41.75
2022-08-17T07:47:27.390Z,42.16
2022-08-17T07:48:27.445Z,41.19
2022-08-17T07:49:27.526Z,41.46
2022-08-17T07:50:27.629Z,41.58
2022-08-17T07:51:27.613Z,41.11
2022-08-17T07:52:50.416Z,43.85
2022-08-17T07:53:28.690Z,40.21
2022-08-17T07:54:27.748Z,39.33
2022-08-17T07:55:27.799Z,40.31
2022-08-17T07:56:27.863Z,40.60
2022-08-17T07:57:30.097Z,40.48
2022-08-17T07:58:27.894Z,40.19
2022-08-17T07:59:33.206Z,39.70
2022-08-17T08:00:31.962Z,40.47
2022-08-17T08:01:28.025Z,39.28
2022-08-17T08:02:33.454Z,38.59
2022-08-17T08:03:28.985Z,39.69
2022-08-17T08:04:58.979Z,40.76
2022-08-17T08:05:49.904Z,41.15
2022-08-17T08:06:29.054Z,40.78
2022-08-17T08:07:28.095Z,40.97
2022-08-17T08:08:28.312Z,40.37
2022-08-17T08:09:28.131Z,39.76
2022-08-17T08:10:28.164Z,38.49
2022-08-17T08:11:28.214Z,39.26
2022-08-17T08:12:28.972Z,39.47
2022-08-17T08:13:29.273Z,39.84
2022-08-17T08:14:28.887Z,40.23
2022-08-17T08:15:28.390Z,37.02
2022-08-17T08:16:28.447Z,37.41
2022-08-17T08:17:28.486Z,37.79
2022-08-17T08:18:53.587Z,37.87
2022-08-17T08:19:29.510Z,37.10
2022-08-17T08:20:52.231Z,36.41
2022-08-17T08:21:29.533Z,38.95
2022-08-17T08:22:28.577Z,39.34
2022-08-17T08:23:28.613Z,38.87
2022-08-17T08:24:30.722Z,38.38
2022-08-17T08:25:28.689Z,37.79
2022-08-17T08:26:28.597Z,36.22
2022-08-17T08:27:28.641Z,37.27
2022-08-17T08:28:28.681Z,38.83
2022-08-17T08:29:28.712Z,37.54
2022-08-17T08:30:28.752Z,35.02
2022-08-17T08:31:28.769Z,35.02
2022-08-17T08:32:28.803Z,35.97
2022-08-17T08:33:28.853Z,36.34
2022-08-17T08:34:53.163Z,35.76
2022-08-17T08:35:29.882Z,35.37
2022-08-17T08:37:12.921Z,35.64
2022-08-17T08:37:35.573Z,34.87
2022-08-17T08:38:29.845Z,35.66
2022-08-17T08:39:28.918Z,35.92
2022-08-17T08:40:28.912Z,35.25
2022-08-17T08:41:28.938Z,34.50
2022-08-17T08:42:28.954Z,36.54
2022-08-17T08:43:28.981Z,34.97
2022-08-17T08:45:01.097Z,35.72
2022-08-17T08:45:29.944Z,35.53
2022-08-17T08:46:28.955Z,35.24
2022-08-17T08:47:28.973Z,34.28
2022-08-17T08:48:57.061Z,37.30
2022-08-17T08:50:01.335Z,34.97
2022-08-17T08:50:38.126Z,34.69
2022-08-17T08:51:29.798Z,34.70
2022-08-17T08:52:28.764Z,35.17
2022-08-17T08:53:28.760Z,34.28
2022-08-17T08:54:28.763Z,35.43
2022-08-17T08:55:28.774Z,34.17
2022-08-17T08:56:28.774Z,32.82
2022-08-17T08:57:33.722Z,35.96
2022-08-17T08:58:31.428Z,34.01
2022-08-17T08:59:29.681Z,33.62
2022-08-17T09:00:28.693Z,33.73
2022-08-17T09:01:28.745Z,35.84
2022-08-17T09:02:28.646Z,35.14
2022-08-17T09:03:50.952Z,33.88
2022-08-17T09:04:29.532Z,33.20
2022-08-17T09:05:28.543Z,33.98
2022-08-17T09:06:35.603Z,32.91
2022-08-17T09:07:29.504Z,34.74
2022-08-17T09:08:28.495Z,34.23
2022-08-17T09:09:28.483Z,31.82
2022-08-17T09:10:28.487Z,33.31
2022-08-17T09:11:28.484Z,33.23
2022-08-17T09:12:28.467Z,33.04
2022-08-17T09:13:28.439Z,33.83
2022-08-17T09:14:29.334Z,33.95
2022-08-17T09:15:28.330Z,33.75
2022-08-17T09:16:28.301Z,35.31
2022-08-17T09:17:28.271Z,35.10
2022-08-17T09:19:00.481Z,33.14
2022-08-17T09:19:29.147Z,34.32
2022-08-17T09:20:28.801Z,32.94
2022-08-17T09:21:28.000Z,34.09
2022-08-17T09:22:28.928Z,32.62
2022-08-17T09:23:27.883Z,34.93
2022-08-17T09:24:27.838Z,33.07
2022-08-17T09:25:27.806Z,34.53
2022-08-17T09:26:27.779Z,33.57
2022-08-17T09:27:27.746Z,33.46
2022-08-17T09:28:27.727Z,33.84
2022-08-17T09:29:27.674Z,33.36
2022-08-17T09:30:27.636Z,34.12
2022-08-17T09:31:32.748Z,33.73
2022-08-17T09:32:28.524Z,32.07
2022-08-17T09:33:27.475Z,33.23
2022-08-17T09:34:33.216Z,32.64
2022-08-17T09:35:36.588Z,32.52
2022-08-17T09:36:28.283Z,31.57
2022-08-17T09:37:27.255Z,30.42
2022-08-17T09:38:32.143Z,32.31
2022-08-17T09:39:28.150Z,32.71
2022-08-17T09:40:26.986Z,33.11
2022-08-17T09:41:26.956Z,33.56
2022-08-17T09:42:26.919Z,32.29
2022-08-17T09:43:26.862Z,32.32
2022-08-17T09:44:26.807Z,31.85
2022-08-17T09:45:26.765Z,32.92
2022-08-17T09:46:26.714Z,33.41
2022-08-17T09:47:26.683Z,33.91
2022-08-17T09:48:26.637Z,32.75
2022-08-17T09:49:26.610Z,32.82
2022-08-17T09:51:01.625Z,32.44
2022-08-17T09:51:27.487Z,32.64
2022-08-17T09:52:26.465Z,33.81
2022-08-17T09:53:26.416Z,32.37
2022-08-17T09:54:41.762Z,33.26
2022-08-17T09:55:27.307Z,32.96
2022-08-17T09:56:26.229Z,32.65
2022-08-17T09:57:31.077Z,32.64
2022-08-17T09:58:29.278Z,31.45
2022-08-17T09:59:26.050Z,32.62
2022-08-17T10:00:26.970Z,32.55
2022-08-17T10:01:25.947Z,33.33
2022-08-17T10:02:25.789Z,32.26
2022-08-17T10:03:26.094Z,32.04
2022-08-17T10:04:29.525Z,31.84
2022-08-17T10:05:25.579Z,31.76
2022-08-17T10:06:25.543Z,33.93
2022-08-17T10:07:25.487Z,32.49
2022-08-17T10:08:25.691Z,34.03
2022-08-17T10:09:25.327Z,31.90
2022-08-17T10:10:25.295Z,31.50
2022-08-17T10:11:33.698Z,32.05
2022-08-17T10:12:30.148Z,33.38
2022-08-17T10:13:25.321Z,31.45
2022-08-17T10:14:37.979Z,31.77
2022-08-17T10:15:26.845Z,32.67
2022-08-17T10:16:24.796Z,32.78
2022-08-17T10:17:24.755Z,32.70
2022-08-17T10:18:24.731Z,32.50
2022-08-17T10:19:25.637Z,34.22
2022-08-17T10:20:24.595Z,32.68
2022-08-17T10:21:24.618Z,32.81
2022-08-17T10:22:35.272Z,33.20
2022-08-17T10:23:25.672Z,32.62
2022-08-17T10:24:24.320Z,32.79
2022-08-17T10:25:33.295Z,32.10
2022-08-17T10:26:25.195Z,32.29
2022-08-17T10:27:24.166Z,32.55
2022-08-17T10:28:28.865Z,32.32
2022-08-17T10:29:25.003Z,32.87
2022-08-17T10:30:24.001Z,31.50
2022-08-17T10:31:34.710Z,31.10
2022-08-17T10:32:24.739Z,32.73
2022-08-17T10:33:23.749Z,29.80
2022-08-17T10:34:23.608Z,29.41
2022-08-17T10:35:23.556Z,30.23
2022-08-17T10:36:23.496Z,30.13
2022-08-17T10:37:23.446Z,29.88
2022-08-17T10:38:24.516Z,31.26
2022-08-17T10:39:23.256Z,29.88
2022-08-17T10:40:23.253Z,30.26
2022-08-17T10:41:23.090Z,30.24
2022-08-17T10:42:30.804Z,29.76
2022-08-17T10:43:23.936Z,31.60
2022-08-17T10:44:38.519Z,29.66
2022-08-17T10:45:23.685Z,33.54
2022-08-17T10:46:30.429Z,30.42
2022-08-17T10:47:23.494Z,31.96
2022-08-17T10:48:22.437Z,29.80
2022-08-17T10:49:22.366Z,30.08
2022-08-17T10:50:22.293Z,30.47
2022-08-17T10:51:22.231Z,30.57
2022-08-17T10:52:22.170Z,29.59
2022-08-17T10:53:22.047Z,29.01
2022-08-17T10:54:22.010Z,28.33
2022-08-17T10:55:21.839Z,30.17
2022-08-17T10:56:21.774Z,29.19
2022-08-17T10:57:21.763Z,28.11
2022-08-17T10:58:21.602Z,29.27
2022-08-17T10:59:21.518Z,31.38
2022-08-17T11:00:27.049Z,29.06
2022-08-17T11:01:22.467Z,28.58
2022-08-17T11:02:21.318Z,29.53
2022-08-17T11:03:21.248Z,27.50
2022-08-17T11:04:21.187Z,28.12
2022-08-17T11:05:21.148Z,28.41
2022-08-17T11:06:21.085Z,28.92
2022-08-17T11:07:21.752Z,30.76
2022-08-17T11:08:20.926Z,30.66
2022-08-17T11:09:20.868Z,29.43
2022-08-17T11:10:20.779Z,29.63
2022-08-17T11:11:20.716Z,31.20
2022-08-17T11:12:20.649Z,31.96
2022-08-17T11:13:20.581Z,29.83
2022-08-17T11:14:20.505Z,29.83
2022-08-17T11:15:20.462Z,31.28
2022-08-17T11:16:20.390Z,31.18
2022-08-17T11:17:20.263Z,30.69
2022-08-17T11:18:20.207Z,29.55
2022-08-17T11:19:20.140Z,29.17
2022-08-17T11:20:20.082Z,28.80
2022-08-17T11:21:20.018Z,28.80
2022-08-17T11:22:19.930Z,28.76
2022-08-17T11:23:20.094Z,28.34
2022-08-17T11:24:19.854Z,27.94
2022-08-17T11:25:19.813Z,28.62
2022-08-17T11:26:19.765Z,28.17
2022-08-17T11:27:19.715Z,28.17
2022-08-17T11:28:19.661Z,29.16
2022-08-17T11:29:19.612Z,30.04
2022-08-17T11:30:20.523Z,30.38
2022-08-17T11:31:20.413Z,29.01
2022-08-17T11:32:20.298Z,29.19
2022-08-17T11:33:19.228Z,30.22
2022-08-17T11:34:19.206Z,29.71
2022-08-17T11:35:19.146Z,28.55
2022-08-17T11:36:19.107Z,33.47
2022-08-17T11:37:19.066Z,28.04
2022-08-17T11:38:19.010Z,28.59
2022-08-17T11:39:18.946Z,25.22
2022-08-17T11:40:18.978Z,27.20
2022-08-17T11:41:18.767Z,26.53
2022-08-17T11:42:18.702Z,26.35
2022-08-17T11:43:18.647Z,27.06
2022-08-17T11:44:18.575Z,27.25
2022-08-17T11:45:32.336Z,27.28
2022-08-17T11:46:19.447Z,27.50
2022-08-17T11:47:18.302Z,27.40
2022-08-17T11:48:27.670Z,28.18
2022-08-17T11:49:19.139Z,27.42
2022-08-17T11:50:18.096Z,28.70
2022-08-17T11:51:18.047Z,29.61
2022-08-17T11:52:18.026Z,29.72
2022-08-17T11:53:18.826Z,30.48
2022-08-17T11:54:34.655Z,31.07
2022-08-17T11:55:35.412Z,29.80
2022-08-17T11:56:18.766Z,30.30
2022-08-17T11:57:17.747Z,29.82
2022-08-17T11:58:17.755Z,31.18
2022-08-17T11:59:17.738Z,31.27
2022-08-17T12:00:17.749Z,31.34
2022-08-17T12:01:17.644Z,31.20
2022-08-17T12:02:17.639Z,29.44
2022-08-17T12:03:17.730Z,29.50
2022-08-17T12:04:17.639Z,28.97
2022-08-17T12:05:17.620Z,27.09
2022-08-17T12:06:17.603Z,26.89
2022-08-17T12:07:17.582Z,27.86
2022-08-17T12:08:17.531Z,28.05
2022-08-17T12:09:17.499Z,27.37
2022-08-17T12:10:17.438Z,26.86
2022-08-17T12:11:17.410Z,28.49
2022-08-17T12:12:18.308Z,28.00
2022-08-17T12:13:17.278Z,26.83
2022-08-17T12:14:21.282Z,27.24
2022-08-17T12:15:18.139Z,26.56
2022-08-17T12:16:17.093Z,26.25
2022-08-17T12:17:33.594Z,26.73
2022-08-17T12:18:17.943Z,25.60
2022-08-17T12:19:16.899Z,26.09
2022-08-17T12:20:16.835Z,26.98
2022-08-17T12:21:16.780Z,26.53
2022-08-17T12:22:16.714Z,28.28
2022-08-17T12:23:16.664Z,29.05
2022-08-17T12:24:17.549Z,28.87
2022-08-17T12:25:16.534Z,27.82
2022-08-17T12:26:16.493Z,29.36
2022-08-17T12:27:16.448Z,28.91
2022-08-17T12:28:19.903Z,30.21
2022-08-17T12:29:18.102Z,30.23
2022-08-17T12:30:17.239Z,29.76
2022-08-17T12:31:16.075Z,29.88
2022-08-17T12:32:16.042Z,30.87
2022-08-17T12:33:25.654Z,30.50
2022-08-17T12:34:17.062Z,31.95
2022-08-17T12:35:15.980Z,30.50
2022-08-17T12:36:15.878Z,31.68
2022-08-17T12:37:15.844Z,33.23
2022-08-17T12:38:31.958Z,32.17
2022-08-17T12:39:21.375Z,32.05
2022-08-17T12:40:15.762Z,31.95
2022-08-17T12:41:15.766Z,31.63
2022-08-17T12:42:15.801Z,31.71
2022-08-17T12:43:15.771Z,30.62
2022-08-17T12:44:15.761Z,31.96
2022-08-17T12:45:15.746Z,30.20
2022-08-17T12:46:15.782Z,30.76
2022-08-17T12:47:21.023Z,30.10
2022-08-17T12:48:16.682Z,28.87
2022-08-17T12:49:15.698Z,30.45
2022-08-17T12:50:29.824Z,31.63
2022-08-17T12:51:16.644Z,30.37
2022-08-17T12:52:15.655Z,31.55
2022-08-17T12:53:15.684Z,30.77